Wastedo, Minnesota
Current Conditions -  °F | °C
As of 4:13 PM on Saturday 25 Oct 2014 (Local Time) from KSYN Reporting Station
Clear Clear  
Wind Chill: 64°   Ceiling: Unl
Heat Index: 64°   Visibility: 10mi
Dew Point: 25°   Wind: 14mph
Humidity: 23%   Direction: 300°WNW
Pressure: 30.03"   Gusts: NA
Location:  44.4763°N, 92.8054°W
Report Text: KSYN 252113Z AUTO 30012KT 10SM CLR 18/M04 A3003 RMK AO2 T01771039
Loading
Personal Weather Stations






























Interactive Weather Map
Tropical Storm Tracking
New forecast layout! Learn more

10-Day Weather Forecast

Advertisements
Track Severe Weather on mobile